TimeEST,TemperatureF,Dew PointF,Humidity,Sea Level PressureIn,VisibilityMPH,Wind Direction,Wind SpeedMPH,Gust SpeedMPH,PrecipitationIn,Events,Conditions,WindDirDegrees,DateUTC
12:06 AM,44.1,41.0,89,29.95,5.0,East,4.6,-,N/A,,Mostly Cloudy,90,2012-11-22 05:06:00
12:14 AM,44.1,41.0,89,29.94,5.0,East,4.6,-,N/A,,Mostly Cloudy,100,2012-11-22 05:14:00
12:55 AM,43.0,39.9,89,29.94,6.0,SE,3.5,-,N/A,,Mostly Cloudy,130,2012-11-22 05:55:00
1:05 AM,43.0,39.9,89,29.93,6.0,SSE,4.6,-,N/A,,Scattered Clouds,160,2012-11-22 06:05:00
1:55 AM,42.1,37.9,85,29.93,6.0,ESE,3.5,-,N/A,,Clear,110,2012-11-22 06:55:00
2:55 AM,41.0,37.9,89,29.92,5.0,Calm,Calm,-,N/A,,Clear,0,2012-11-22 07:55:00
3:55 AM,41.0,37.9,89,29.90,4.0,East,5.8,-,N/A,,Clear,90,2012-11-22 08:55:00
4:55 AM,39.9,37.0,89,29.88,6.0,East,6.9,-,N/A,,Clear,90,2012-11-22 09:55:00
5:55 AM,41.0,37.0,86,29.87,7.0,East,5.8,-,N/A,,Clear,90,2012-11-22 10:55:00
6:55 AM,39.9,37.0,89,29.86,4.0,ENE,4.6,-,N/A,,Clear,70,2012-11-22 11:55:00
7:55 AM,39.9,37.0,89,29.85,2.5,East,5.8,-,N/A,,Clear,80,2012-11-22 12:55:00
8:52 AM,41.0,37.4,87,29.83,3.0,East,6.9,-,N/A,,Clear,100,2012-11-22 13:52:00
8:55 AM,42.1,37.9,85,29.84,4.0,East,5.8,-,N/A,,Clear,100,2012-11-22 13:55:00
9:55 AM,45.0,39.9,82,29.82,5.0,East,6.9,-,N/A,,Haze,100,2012-11-22 14:55:00
10:55 AM,50.0,41.0,71,29.80,10.0,ESE,8.1,-,N/A,,Clear,120,2012-11-22 15:55:00
11:55 AM,55.9,39.0,53,29.75,10.0,SSE,8.1,-,N/A,,Clear,160,2012-11-22 16:55:00
12:55 PM,64.0,35.1,34,29.72,10.0,SSW,12.7,20.7,N/A,,Clear,210,2012-11-22 17:55:00
1:55 PM,64.9,34.0,32,29.69,10.0,SSW,16.1,24.2,N/A,,Clear,210,2012-11-22 18:55:00
2:55 PM,64.9,34.0,32,29.66,10.0,SW,13.8,23.0,N/A,,Clear,220,2012-11-22 19:55:00
3:55 PM,64.0,35.1,34,29.65,10.0,SSW,12.7,27.6,N/A,,Clear,200,2012-11-22 20:55:00
4:55 PM,61.0,36.0,39,29.65,10.0,SSW,13.8,-,N/A,,Clear,200,2012-11-22 21:55:00
5:55 PM,59.0,36.0,42,29.65,10.0,ESE,3.5,-,N/A,,Overcast,120,2012-11-22 22:55:00
6:55 PM,55.0,37.9,53,29.63,10.0,ENE,4.6,-,N/A,,Overcast,70,2012-11-22 23:55:00
7:55 PM,57.9,39.0,49,29.63,10.0,SSW,9.2,20.7,N/A,,Overcast,210,2012-11-23 00:55:00
8:55 PM,57.0,39.9,53,29.60,10.0,SSW,11.5,21.9,N/A,,Overcast,210,2012-11-23 01:55:00
9:55 PM,57.0,41.0,55,29.56,10.0,SSW,20.7,27.6,N/A,,Overcast,210,2012-11-23 02:55:00
10:55 PM,55.9,43.0,62,29.54,10.0,SSW,16.1,24.2,N/A,,Overcast,210,2012-11-23 03:55:00
11:55 PM,55.0,44.1,67,29.51,10.0,SSW,10.4,-,N/A,,Overcast,210,2012-11-23 04:55:00